sensor_id;sensor_type;location;lat;lon;timestamp;temperature;humidity
77582;DHT22;66726;52.388;9.986;2023-03-12T00:00:10;0.50;96.20
77582;DHT22;66726;52.388;9.986;2023-03-12T00:02:45;0.50;96.10
77582;DHT22;66726;52.388;9.986;2023-03-12T00:05:18;0.50;96.20
77582;DHT22;66726;52.388;9.986;2023-03-12T00:07:53;0.50;96.30
77582;DHT22;66726;52.388;9.986;2023-03-12T00:10:29;0.40;96.60
77582;DHT22;66726;52.388;9.986;2023-03-12T00:13:02;0.50;96.30
77582;DHT22;66726;52.388;9.986;2023-03-12T00:15:37;0.50;96.70
77582;DHT22;66726;52.388;9.986;2023-03-12T00:18:10;0.50;96.50
77582;DHT22;66726;52.388;9.986;2023-03-12T00:20:41;0.40;96.30
77582;DHT22;66726;52.388;9.986;2023-03-12T00:23:20;0.40;96.40
77582;DHT22;66726;52.388;9.986;2023-03-12T00:25:57;0.40;96.40
77582;DHT22;66726;52.388;9.986;2023-03-12T00:28:32;0.30;96.50
77582;DHT22;66726;52.388;9.986;2023-03-12T00:31:12;0.30;96.50
77582;DHT22;66726;52.388;9.986;2023-03-12T00:33:46;0.40;96.90
77582;DHT22;66726;52.388;9.986;2023-03-12T00:36:20;0.30;96.60
77582;DHT22;66726;52.388;9.986;2023-03-12T00:38:57;0.40;96.70
77582;DHT22;66726;52.388;9.986;2023-03-12T00:41:31;0.30;96.60
77582;DHT22;66726;52.388;9.986;2023-03-12T00:44:04;0.30;96.40
77582;DHT22;66726;52.388;9.986;2023-03-12T00:46:36;0.30;96.40
77582;DHT22;66726;52.388;9.986;2023-03-12T00:49:08;0.30;96.50
77582;DHT22;66726;52.388;9.986;2023-03-12T00:51:39;0.30;96.40
77582;DHT22;66726;52.388;9.986;2023-03-12T00:54:11;0.30;96.60
77582;DHT22;66726;52.388;9.986;2023-03-12T00:56:43;0.30;96.40
77582;DHT22;66726;52.388;9.986;2023-03-12T00:59:17;0.30;96.40
77582;DHT22;66726;52.388;9.986;2023-03-12T01:01:49;0.30;96.50
77582;DHT22;66726;52.388;9.986;2023-03-12T01:04:21;0.30;96.60
77582;DHT22;66726;52.388;9.986;2023-03-12T01:06:53;0.30;96.40
77582;DHT22;66726;52.388;9.986;2023-03-12T01:09:25;0.30;96.60
77582;DHT22;66726;52.388;9.986;2023-03-12T01:11:57;0.30;96.30
77582;DHT22;66726;52.388;9.986;2023-03-12T01:14:30;0.30;96.60
77582;DHT22;66726;52.388;9.986;2023-03-12T01:17:02;0.30;96.50
77582;DHT22;66726;52.388;9.986;2023-03-12T01:19:34;0.30;96.30
77582;DHT22;66726;52.388;9.986;2023-03-12T01:22:06;0.30;96.40
77582;DHT22;66726;52.388;9.986;2023-03-12T01:24:38;0.30;96.40
77582;DHT22;66726;52.388;9.986;2023-03-12T01:27:09;0.30;96.40
77582;DHT22;66726;52.388;9.986;2023-03-12T01:29:42;0.40;96.60
77582;DHT22;66726;52.388;9.986;2023-03-12T01:32:16;0.40;96.40
77582;DHT22;66726;52.388;9.986;2023-03-12T01:34:48;0.40;96.40
77582;DHT22;66726;52.388;9.986;2023-03-12T01:37:19;0.30;96.30
77582;DHT22;66726;52.388;9.986;2023-03-12T01:39:51;0.30;96.60
77582;DHT22;66726;52.388;9.986;2023-03-12T01:42:23;0.30;96.70
77582;DHT22;66726;52.388;9.986;2023-03-12T01:44:58;0.30;96.70
77582;DHT22;66726;52.388;9.986;2023-03-12T01:47:32;0.40;96.90
77582;DHT22;66726;52.388;9.986;2023-03-12T01:50:04;0.40;97.70
77582;DHT22;66726;52.388;9.986;2023-03-12T01:52:37;0.40;97.20
77582;DHT22;66726;52.388;9.986;2023-03-12T01:55:14;0.40;97.70
77582;DHT22;66726;52.388;9.986;2023-03-12T01:57:50;0.40;97.60
77582;DHT22;66726;52.388;9.986;2023-03-12T02:00:27;0.50;97.60
77582;DHT22;66726;52.388;9.986;2023-03-12T02:03:00;0.40;97.70
77582;DHT22;66726;52.388;9.986;2023-03-12T02:05:39;0.40;97.80
77582;DHT22;66726;52.388;9.986;2023-03-12T02:08:17;0.40;97.60
77582;DHT22;66726;52.388;9.986;2023-03-12T02:10:49;0.40;97.60
77582;DHT22;66726;52.388;9.986;2023-03-12T02:13:20;0.40;97.60
77582;DHT22;66726;52.388;9.986;2023-03-12T02:15:54;0.40;97.60
77582;DHT22;66726;52.388;9.986;2023-03-12T02:18:26;0.30;97.70
77582;DHT22;66726;52.388;9.986;2023-03-12T02:21:04;0.40;97.80
77582;DHT22;66726;52.388;9.986;2023-03-12T02:23:44;0.40;97.40
77582;DHT22;66726;52.388;9.986;2023-03-12T02:26:24;0.30;97.10
77582;DHT22;66726;52.388;9.986;2023-03-12T02:29:00;0.30;97.60
77582;DHT22;66726;52.388;9.986;2023-03-12T02:31:34;0.30;97.90
77582;DHT22;66726;52.388;9.986;2023-03-12T02:34:11;0.20;97.60
77582;DHT22;66726;52.388;9.986;2023-03-12T02:36:43;0.20;97.70
77582;DHT22;66726;52.388;9.986;2023-03-12T02:39:16;0.20;97.70
77582;DHT22;66726;52.388;9.986;2023-03-12T02:41:53;0.60;97.70
77582;DHT22;66726;52.388;9.986;2023-03-12T02:44:28;0.20;98.00
77582;DHT22;66726;52.388;9.986;2023-03-12T02:47:02;0.20;98.00
77582;DHT22;66726;52.388;9.986;2023-03-12T02:49:35;0.20;97.80
77582;DHT22;66726;52.388;9.986;2023-03-12T02:52:07;0.20;97.80
77582;DHT22;66726;52.388;9.986;2023-03-12T02:54:39;0.10;97.80
77582;DHT22;66726;52.388;9.986;2023-03-12T02:57:14;0.10;97.80
77582;DHT22;66726;52.388;9.986;2023-03-12T02:59:46;0.00;97.80
77582;DHT22;66726;52.388;9.986;2023-03-12T03:02:18;0.00;97.90
77582;DHT22;66726;52.388;9.986;2023-03-12T03:04:50;0.00;97.80
77582;DHT22;66726;52.388;9.986;2023-03-12T03:07:21;0.00;97.80
77582;DHT22;66726;52.388;9.986;2023-03-12T03:09:53;0.00;98.20
77582;DHT22;66726;52.388;9.986;2023-03-12T03:12:32;0.00;97.70
77582;DHT22;66726;52.388;9.986;2023-03-12T03:15:07;0.00;97.80
77582;DHT22;66726;52.388;9.986;2023-03-12T03:17:40;0.00;97.70
77582;DHT22;66726;52.388;9.986;2023-03-12T03:20:13;0.00;98.10
77582;DHT22;66726;52.388;9.986;2023-03-12T03:22:45;0.10;98.00
77582;DHT22;66726;52.388;9.986;2023-03-12T03:25:17;0.00;98.00
77582;DHT22;66726;52.388;9.986;2023-03-12T03:27:52;0.10;98.00
77582;DHT22;66726;52.388;9.986;2023-03-12T03:30:24;0.10;97.90
77582;DHT22;66726;52.388;9.986;2023-03-12T03:32:56;0.10;97.80
77582;DHT22;66726;52.388;9.986;2023-03-12T03:35:28;0.10;98.20
77582;DHT22;66726;52.388;9.986;2023-03-12T03:38:00;0.10;98.20
77582;DHT22;66726;52.388;9.986;2023-03-12T03:40:32;0.10;98.10
77582;DHT22;66726;52.388;9.986;2023-03-12T03:43:05;0.10;98.10
77582;DHT22;66726;52.388;9.986;2023-03-12T03:45:36;0.10;98.10
77582;DHT22;66726;52.388;9.986;2023-03-12T03:48:08;0.00;97.90
77582;DHT22;66726;52.388;9.986;2023-03-12T03:50:41;0.10;98.10
77582;DHT22;66726;52.388;9.986;2023-03-12T03:53:13;0.10;98.00
77582;DHT22;66726;52.388;9.986;2023-03-12T03:55:47;0.00;97.70
77582;DHT22;66726;52.388;9.986;2023-03-12T03:58:20;0.00;97.70
77582;DHT22;66726;52.388;9.986;2023-03-12T04:00:52;0.00;98.00
77582;DHT22;66726;52.388;9.986;2023-03-12T04:03:25;0.00;98.10
77582;DHT22;66726;52.388;9.986;2023-03-12T04:05:58;-0.10;98.10
77582;DHT22;66726;52.388;9.986;2023-03-12T04:08:31;-0.10;98.00
77582;DHT22;66726;52.388;9.986;2023-03-12T04:11:08;-0.10;98.10
77582;DHT22;66726;52.388;9.986;2023-03-12T04:13:44;-0.10;97.90
77582;DHT22;66726;52.388;9.986;2023-03-12T04:16:18;-0.10;97.90
77582;DHT22;66726;52.388;9.986;2023-03-12T04:18:49;-0.20;98.20
77582;DHT22;66726;52.388;9.986;2023-03-12T04:21:21;-0.30;98.40
77582;DHT22;66726;52.388;9.986;2023-03-12T04:23:53;-0.30;98.70
77582;DHT22;66726;52.388;9.986;2023-03-12T04:26:25;-0.30;98.60
77582;DHT22;66726;52.388;9.986;2023-03-12T04:28:58;-0.30;98.60
77582;DHT22;66726;52.388;9.986;2023-03-12T04:31:30;-0.30;98.90
77582;DHT22;66726;52.388;9.986;2023-03-12T04:34:02;-0.30;98.90
77582;DHT22;66726;52.388;9.986;2023-03-12T04:36:34;-0.40;98.80
77582;DHT22;66726;52.388;9.986;2023-03-12T04:39:07;-0.30;98.80
77582;DHT22;66726;52.388;9.986;2023-03-12T04:41:39;-0.30;98.70
77582;DHT22;66726;52.388;9.986;2023-03-12T04:44:12;-0.40;98.60
77582;DHT22;66726;52.388;9.986;2023-03-12T04:46:45;-0.50;98.80
77582;DHT22;66726;52.388;9.986;2023-03-12T04:49:17;-0.60;98.80
77582;DHT22;66726;52.388;9.986;2023-03-12T04:51:49;-0.60;99.10
77582;DHT22;66726;52.388;9.986;2023-03-12T04:54:20;-0.50;99.10
77582;DHT22;66726;52.388;9.986;2023-03-12T04:56:52;-0.50;99.00
77582;DHT22;66726;52.388;9.986;2023-03-12T04:59:25;-0.60;99.10
77582;DHT22;66726;52.388;9.986;2023-03-12T05:01:57;-0.70;99.30
77582;DHT22;66726;52.388;9.986;2023-03-12T05:04:29;-0.60;99.40
77582;DHT22;66726;52.388;9.986;2023-03-12T05:07:01;-0.60;99.30
77582;DHT22;66726;52.388;9.986;2023-03-12T05:09:33;-0.50;99.50
77582;DHT22;66726;52.388;9.986;2023-03-12T05:12:06;-0.50;99.60
77582;DHT22;66726;52.388;9.986;2023-03-12T05:14:40;-0.60;99.10
77582;DHT22;66726;52.388;9.986;2023-03-12T05:17:12;-0.60;99.90
77582;DHT22;66726;52.388;9.986;2023-03-12T05:19:44;-0.70;99.50
77582;DHT22;66726;52.388;9.986;2023-03-12T05:22:16;-0.70;99.60
77582;DHT22;66726;52.388;9.986;2023-03-12T05:24:48;-0.60;99.40
77582;DHT22;66726;52.388;9.986;2023-03-12T05:27:19;-0.70;99.20
77582;DHT22;66726;52.388;9.986;2023-03-12T05:29:54;-0.60;99.50
77582;DHT22;66726;52.388;9.986;2023-03-12T05:32:26;-0.70;99.60
77582;DHT22;66726;52.388;9.986;2023-03-12T05:34:58;-0.70;99.70
77582;DHT22;66726;52.388;9.986;2023-03-12T05:37:30;-0.70;99.70
77582;DHT22;66726;52.388;9.986;2023-03-12T05:40:02;-0.70;99.80
77582;DHT22;66726;52.388;9.986;2023-03-12T05:42:35;-0.60;99.80
77582;DHT22;66726;52.388;9.986;2023-03-12T05:45:10;-0.60;99.70
77582;DHT22;66726;52.388;9.986;2023-03-12T05:47:42;-0.60;99.90
77582;DHT22;66726;52.388;9.986;2023-03-12T05:50:14;-0.50;99.80
77582;DHT22;66726;52.388;9.986;2023-03-12T05:52:45;-0.50;99.60
77582;DHT22;66726;52.388;9.986;2023-03-12T05:55:17;-0.50;99.80
77582;DHT22;66726;52.388;9.986;2023-03-12T05:57:49;-0.50;99.90
77582;DHT22;66726;52.388;9.986;2023-03-12T06:00:24;-0.50;99.90
77582;DHT22;66726;52.388;9.986;2023-03-12T06:02:56;-0.40;99.80
77582;DHT22;66726;52.388;9.986;2023-03-12T06:05:28;-0.40;99.90
77582;DHT22;66726;52.388;9.986;2023-03-12T06:08:01;-0.30;99.80
77582;DHT22;66726;52.388;9.986;2023-03-12T06:10:33;-0.30;99.80
77582;DHT22;66726;52.388;9.986;2023-03-12T06:13:08;-0.30;99.80
77582;DHT22;66726;52.388;9.986;2023-03-12T06:15:41;-0.30;99.90
77582;DHT22;66726;52.388;9.986;2023-03-12T06:18:13;-0.30;99.90
77582;DHT22;66726;52.388;9.986;2023-03-12T06:20:45;-0.20;99.90
77582;DHT22;66726;52.388;9.986;2023-03-12T06:23:17;-0.20;99.90
77582;DHT22;66726;52.388;9.986;2023-03-12T06:25:49;-0.20;99.90
77582;DHT22;66726;52.388;9.986;2023-03-12T06:28:20;-0.10;99.80
77582;DHT22;66726;52.388;9.986;2023-03-12T06:30:55;-0.10;99.80
77582;DHT22;66726;52.388;9.986;2023-03-12T06:33:27;-0.10;99.90
77582;DHT22;66726;52.388;9.986;2023-03-12T06:35:59;0.00;99.80
77582;DHT22;66726;52.388;9.986;2023-03-12T06:38:32;0.00;99.90
77582;DHT22;66726;52.388;9.986;2023-03-12T06:41:07;0.00;99.90
77582;DHT22;66726;52.388;9.986;2023-03-12T06:43:40;0.00;99.80
77582;DHT22;66726;52.388;9.986;2023-03-12T06:46:16;0.00;99.60
77582;DHT22;66726;52.388;9.986;2023-03-12T06:48:50;0.10;99.60
77582;DHT22;66726;52.388;9.986;2023-03-12T06:51:22;0.10;99.50
77582;DHT22;66726;52.388;9.986;2023-03-12T06:53:54;0.10;99.60
77582;DHT22;66726;52.388;9.986;2023-03-12T06:56:29;0.20;99.60
77582;DHT22;66726;52.388;9.986;2023-03-12T06:59:01;0.20;99.70
77582;DHT22;66726;52.388;9.986;2023-03-12T07:01:34;0.20;99.70
77582;DHT22;66726;52.388;9.986;2023-03-12T07:04:06;0.20;99.70
77582;DHT22;66726;52.388;9.986;2023-03-12T07:06:38;0.20;99.80
77582;DHT22;66726;52.388;9.986;2023-03-12T07:09:10;0.30;99.80
77582;DHT22;66726;52.388;9.986;2023-03-12T07:11:42;0.30;99.90
77582;DHT22;66726;52.388;9.986;2023-03-12T07:14:14;0.30;99.90
77582;DHT22;66726;52.388;9.986;2023-03-12T07:16:48;0.30;99.90
77582;DHT22;66726;52.388;9.986;2023-03-12T07:19:20;0.40;99.90
77582;DHT22;66726;52.388;9.986;2023-03-12T07:21:52;0.40;99.90
77582;DHT22;66726;52.388;9.986;2023-03-12T07:24:24;0.40;99.90
77582;DHT22;66726;52.388;9.986;2023-03-12T07:26:56;0.40;99.90
77582;DHT22;66726;52.388;9.986;2023-03-12T07:29:28;0.50;99.90
77582;DHT22;66726;52.388;9.986;2023-03-12T07:32:01;0.50;99.90
77582;DHT22;66726;52.388;9.986;2023-03-12T07:34:33;0.50;99.90
77582;DHT22;66726;52.388;9.986;2023-03-12T07:37:05;0.50;99.80
77582;DHT22;66726;52.388;9.986;2023-03-12T07:39:37;0.50;99.90
77582;DHT22;66726;52.388;9.986;2023-03-12T07:42:09;0.60;99.90
77582;DHT22;66726;52.388;9.986;2023-03-12T07:44:41;0.60;99.90
77582;DHT22;66726;52.388;9.986;2023-03-12T07:47:15;0.70;99.80
77582;DHT22;66726;52.388;9.986;2023-03-12T07:49:51;0.70;99.60
77582;DHT22;66726;52.388;9.986;2023-03-12T07:52:23;0.70;99.30
77582;DHT22;66726;52.388;9.986;2023-03-12T07:54:55;0.80;99.30
77582;DHT22;66726;52.388;9.986;2023-03-12T07:57:27;0.80;99.20
77582;DHT22;66726;52.388;9.986;2023-03-12T07:59:59;0.90;99.00
77582;DHT22;66726;52.388;9.986;2023-03-12T08:02:35;0.90;99.40
77582;DHT22;66726;52.388;9.986;2023-03-12T08:05:07;0.90;99.20
77582;DHT22;66726;52.388;9.986;2023-03-12T08:07:40;1.00;99.10
77582;DHT22;66726;52.388;9.986;2023-03-12T08:10:12;1.00;99.00
77582;DHT22;66726;52.388;9.986;2023-03-12T08:12:44;1.10;98.90
77582;DHT22;66726;52.388;9.986;2023-03-12T08:15:16;1.10;98.60
77582;DHT22;66726;52.388;9.986;2023-03-12T08:17:50;1.10;98.70
77582;DHT22;66726;52.388;9.986;2023-03-12T08:20:22;1.10;98.40
77582;DHT22;66726;52.388;9.986;2023-03-12T08:22:53;1.10;98.60
77582;DHT22;66726;52.388;9.986;2023-03-12T08:25:25;1.20;98.70
77582;DHT22;66726;52.388;9.986;2023-03-12T08:27:57;1.20;98.70
77582;DHT22;66726;52.388;9.986;2023-03-12T08:30:29;1.30;98.50
77582;DHT22;66726;52.388;9.986;2023-03-12T08:33:03;1.30;98.30
77582;DHT22;66726;52.388;9.986;2023-03-12T08:35:35;1.40;98.10
77582;DHT22;66726;52.388;9.986;2023-03-12T08:38:07;1.40;97.80
77582;DHT22;66726;52.388;9.986;2023-03-12T08:40:39;1.40;97.90
77582;DHT22;66726;52.388;9.986;2023-03-12T08:43:12;1.40;98.10
77582;DHT22;66726;52.388;9.986;2023-03-12T08:45:43;1.40;97.50
77582;DHT22;66726;52.388;9.986;2023-03-12T08:48:17;1.40;97.90
77582;DHT22;66726;52.388;9.986;2023-03-12T08:50:49;1.50;97.70
77582;DHT22;66726;52.388;9.986;2023-03-12T08:53:23;1.50;97.40
77582;DHT22;66726;52.388;9.986;2023-03-12T08:55:55;1.60;97.80
77582;DHT22;66726;52.388;9.986;2023-03-12T08:58:28;1.50;97.70
77582;DHT22;66726;52.388;9.986;2023-03-12T09:01:00;1.60;97.70
77582;DHT22;66726;52.388;9.986;2023-03-12T09:03:38;1.60;97.70
77582;DHT22;66726;52.388;9.986;2023-03-12T09:06:13;1.60;97.90
77582;DHT22;66726;52.388;9.986;2023-03-12T09:08:47;1.70;97.90
77582;DHT22;66726;52.388;9.986;2023-03-12T09:11:19;1.70;98.20
77582;DHT22;66726;52.388;9.986;2023-03-12T09:13:51;1.70;97.90
77582;DHT22;66726;52.388;9.986;2023-03-12T09:16:43;1.80;97.50
77582;DHT22;66726;52.388;9.986;2023-03-12T09:19:16;1.90;97.80
77582;DHT22;66726;52.388;9.986;2023-03-12T09:21:49;1.90;97.80
77582;DHT22;66726;52.388;9.986;2023-03-12T09:24:21;1.90;97.50
77582;DHT22;66726;52.388;9.986;2023-03-12T09:26:52;1.90;97.00
77582;DHT22;66726;52.388;9.986;2023-03-12T09:29:24;2.00;96.80
77582;DHT22;66726;52.388;9.986;2023-03-12T09:31:57;2.00;96.30
77582;DHT22;66726;52.388;9.986;2023-03-12T09:34:33;1.90;96.40
77582;DHT22;66726;52.388;9.986;2023-03-12T09:37:05;2.00;96.30
77582;DHT22;66726;52.388;9.986;2023-03-12T09:39:37;2.10;96.70
77582;DHT22;66726;52.388;9.986;2023-03-12T09:42:16;2.10;96.60
77582;DHT22;66726;52.388;9.986;2023-03-12T09:44:54;2.10;96.40
77582;DHT22;66726;52.388;9.986;2023-03-12T09:47:32;2.20;96.70
77582;DHT22;66726;52.388;9.986;2023-03-12T09:50:21;2.20;96.80
77582;DHT22;66726;52.388;9.986;2023-03-12T09:53:02;2.30;96.40
77582;DHT22;66726;52.388;9.986;2023-03-12T09:55:41;2.30;96.50
77582;DHT22;66726;52.388;9.986;2023-03-12T09:58:21;2.40;96.20
77582;DHT22;66726;52.388;9.986;2023-03-12T10:00:57;2.40;96.00
77582;DHT22;66726;52.388;9.986;2023-03-12T10:04:02;2.50;96.00
77582;DHT22;66726;52.388;9.986;2023-03-12T10:06:42;2.60;95.70
77582;DHT22;66726;52.388;9.986;2023-03-12T10:09:34;2.70;95.50
77582;DHT22;66726;52.388;9.986;2023-03-12T10:12:19;2.70;95.70
77582;DHT22;66726;52.388;9.986;2023-03-12T10:15:20;2.70;95.50
77582;DHT22;66726;52.388;9.986;2023-03-12T10:18:07;2.80;95.40
77582;DHT22;66726;52.388;9.986;2023-03-12T10:21:12;2.80;95.80
77582;DHT22;66726;52.388;9.986;2023-03-12T10:24:06;2.80;95.60
77582;DHT22;66726;52.388;9.986;2023-03-12T10:26:48;2.70;95.80
77582;DHT22;66726;52.388;9.986;2023-03-12T10:29:24;2.70;95.80
77582;DHT22;66726;52.388;9.986;2023-03-12T10:31:58;2.80;95.60
77582;DHT22;66726;52.388;9.986;2023-03-12T10:34:36;2.80;95.80
77582;DHT22;66726;52.388;9.986;2023-03-12T10:37:16;2.70;95.90
77582;DHT22;66726;52.388;9.986;2023-03-12T10:39:53;2.80;95.20
77582;DHT22;66726;52.388;9.986;2023-03-12T10:42:28;2.80;95.30
77582;DHT22;66726;52.388;9.986;2023-03-12T10:45:09;2.90;95.30
77582;DHT22;66726;52.388;9.986;2023-03-12T10:47:54;2.80;95.00
77582;DHT22;66726;52.388;9.986;2023-03-12T10:50:28;2.90;94.80
77582;DHT22;66726;52.388;9.986;2023-03-12T10:53:19;3.00;94.50
77582;DHT22;66726;52.388;9.986;2023-03-12T10:56:01;3.00;94.60
77582;DHT22;66726;52.388;9.986;2023-03-12T10:58:36;3.00;94.80
77582;DHT22;66726;52.388;9.986;2023-03-12T11:01:21;3.00;94.80
77582;DHT22;66726;52.388;9.986;2023-03-12T11:04:08;3.00;94.80
77582;DHT22;66726;52.388;9.986;2023-03-12T11:07:02;3.00;95.20
77582;DHT22;66726;52.388;9.986;2023-03-12T11:09:35;2.90;95.40
77582;DHT22;66726;52.388;9.986;2023-03-12T11:12:24;2.90;95.60
77582;DHT22;66726;52.388;9.986;2023-03-12T11:14:58;2.90;95.70
77582;DHT22;66726;52.388;9.986;2023-03-12T11:17:47;2.90;95.80
77582;DHT22;66726;52.388;9.986;2023-03-12T11:20:26;2.90;96.00
77582;DHT22;66726;52.388;9.986;2023-03-12T11:23:15;2.90;96.20
77582;DHT22;66726;52.388;9.986;2023-03-12T11:25:52;2.90;96.10
77582;DHT22;66726;52.388;9.986;2023-03-12T11:28:31;2.80;96.90
77582;DHT22;66726;52.388;9.986;2023-03-12T11:31:17;2.70;97.10
77582;DHT22;66726;52.388;9.986;2023-03-12T11:33:53;2.80;97.60
77582;DHT22;66726;52.388;9.986;2023-03-12T11:36:44;2.80;97.80
77582;DHT22;66726;52.388;9.986;2023-03-12T11:39:30;2.80;98.10
77582;DHT22;66726;52.388;9.986;2023-03-12T11:42:20;2.80;98.40
77582;DHT22;66726;52.388;9.986;2023-03-12T11:45:06;2.80;98.60
77582;DHT22;66726;52.388;9.986;2023-03-12T11:47:57;2.80;98.80
77582;DHT22;66726;52.388;9.986;2023-03-12T11:50:43;2.80;98.70
77582;DHT22;66726;52.388;9.986;2023-03-12T11:56:36;2.80;98.90
77582;DHT22;66726;52.388;9.986;2023-03-12T11:59:41;2.90;98.80
77582;DHT22;66726;52.388;9.986;2023-03-12T12:02:35;2.90;98.90
77582;DHT22;66726;52.388;9.986;2023-03-12T12:05:24;2.90;99.00
77582;DHT22;66726;52.388;9.986;2023-03-12T12:08:14;3.00;99.10
77582;DHT22;66726;52.388;9.986;2023-03-12T12:11:04;2.90;99.40
77582;DHT22;66726;52.388;9.986;2023-03-12T12:13:46;2.90;99.60
77582;DHT22;66726;52.388;9.986;2023-03-12T12:16:31;2.90;99.80
77582;DHT22;66726;52.388;9.986;2023-03-12T12:19:20;2.90;99.90
77582;DHT22;66726;52.388;9.986;2023-03-12T12:22:05;2.90;99.90
77582;DHT22;66726;52.388;9.986;2023-03-12T12:28:12;2.90;99.90
77582;DHT22;66726;52.388;9.986;2023-03-12T12:31:12;2.90;99.90
77582;DHT22;66726;52.388;9.986;2023-03-12T12:34:01;2.90;99.90
77582;DHT22;66726;52.388;9.986;2023-03-12T12:36:45;2.90;99.90
77582;DHT22;66726;52.388;9.986;2023-03-12T12:39:28;2.90;99.90
77582;DHT22;66726;52.388;9.986;2023-03-12T12:42:07;2.90;99.90
77582;DHT22;66726;52.388;9.986;2023-03-12T12:44:50;2.80;99.90
77582;DHT22;66726;52.388;9.986;2023-03-12T12:47:36;2.80;99.90
77582;DHT22;66726;52.388;9.986;2023-03-12T12:50:19;2.80;99.90
77582;DHT22;66726;52.388;9.986;2023-03-12T12:52:59;2.70;99.90
77582;DHT22;66726;52.388;9.986;2023-03-12T12:55:38;2.70;99.90
77582;DHT22;66726;52.388;9.986;2023-03-12T12:58:18;2.70;99.90
77582;DHT22;66726;52.388;9.986;2023-03-12T13:00:56;2.60;99.90
77582;DHT22;66726;52.388;9.986;2023-03-12T13:03:30;2.70;99.90
77582;DHT22;66726;52.388;9.986;2023-03-12T13:06:03;2.70;99.90
77582;DHT22;66726;52.388;9.986;2023-03-12T13:09:00;2.70;99.90
77582;DHT22;66726;52.388;9.986;2023-03-12T13:11:45;2.70;99.90
77582;DHT22;66726;52.388;9.986;2023-03-12T13:14:40;2.70;99.90
77582;DHT22;66726;52.388;9.986;2023-03-12T13:17:27;2.70;99.90
77582;DHT22;66726;52.388;9.986;2023-03-12T13:20:13;2.70;99.90
77582;DHT22;66726;52.388;9.986;2023-03-12T13:23:08;2.70;99.90
77582;DHT22;66726;52.388;9.986;2023-03-12T13:26:06;2.80;99.90
77582;DHT22;66726;52.388;9.986;2023-03-12T13:29:22;2.70;99.90
77582;DHT22;66726;52.388;9.986;2023-03-12T13:32:07;2.80;99.90
77582;DHT22;66726;52.388;9.986;2023-03-12T13:34:59;2.80;99.90
77582;DHT22;66726;52.388;9.986;2023-03-12T13:38:02;2.80;99.90
77582;DHT22;66726;52.388;9.986;2023-03-12T13:40:52;2.80;99.90
77582;DHT22;66726;52.388;9.986;2023-03-12T13:46:45;2.80;99.90
77582;DHT22;66726;52.388;9.986;2023-03-12T13:49:26;2.80;99.90
77582;DHT22;66726;52.388;9.986;2023-03-12T13:52:15;2.80;99.90
77582;DHT22;66726;52.388;9.986;2023-03-12T13:54:48;2.80;99.90
77582;DHT22;66726;52.388;9.986;2023-03-12T13:57:35;2.90;99.90
77582;DHT22;66726;52.388;9.986;2023-03-12T14:00:17;2.90;99.90
77582;DHT22;66726;52.388;9.986;2023-03-12T14:02:58;2.90;99.90
77582;DHT22;66726;52.388;9.986;2023-03-12T14:05:43;2.90;99.90
77582;DHT22;66726;52.388;9.986;2023-03-12T14:08:37;2.90;99.90
77582;DHT22;66726;52.388;9.986;2023-03-12T14:11:23;2.90;99.90
77582;DHT22;66726;52.388;9.986;2023-03-12T14:17:33;2.90;99.90
77582;DHT22;66726;52.388;9.986;2023-03-12T14:20:13;3.00;99.90
77582;DHT22;66726;52.388;9.986;2023-03-12T14:22:53;3.00;99.90
77582;DHT22;66726;52.388;9.986;2023-03-12T14:25:33;3.10;99.90
77582;DHT22;66726;52.388;9.986;2023-03-12T14:28:12;3.10;99.90
77582;DHT22;66726;52.388;9.986;2023-03-12T14:30:51;3.10;99.90
77582;DHT22;66726;52.388;9.986;2023-03-12T14:33:35;3.10;99.90
77582;DHT22;66726;52.388;9.986;2023-03-12T14:36:20;3.00;99.90
77582;DHT22;66726;52.388;9.986;2023-03-12T14:39:07;3.00;99.90
77582;DHT22;66726;52.388;9.986;2023-03-12T14:41:44;3.10;99.90
77582;DHT22;66726;52.388;9.986;2023-03-12T14:44:24;3.00;99.90
77582;DHT22;66726;52.388;9.986;2023-03-12T14:47:02;3.60;99.90
77582;DHT22;66726;52.388;9.986;2023-03-12T14:49:43;3.10;99.90
77582;DHT22;66726;52.388;9.986;2023-03-12T14:52:22;3.10;99.90
77582;DHT22;66726;52.388;9.986;2023-03-12T14:54:58;3.10;99.90
77582;DHT22;66726;52.388;9.986;2023-03-12T14:57:33;3.10;99.90
77582;DHT22;66726;52.388;9.986;2023-03-12T15:00:13;3.10;99.90
77582;DHT22;66726;52.388;9.986;2023-03-12T15:02:53;3.10;99.90
77582;DHT22;66726;52.388;9.986;2023-03-12T15:05:29;3.10;99.90
77582;DHT22;66726;52.388;9.986;2023-03-12T15:08:02;3.20;99.90
77582;DHT22;66726;52.388;9.986;2023-03-12T15:10:36;3.10;99.90
77582;DHT22;66726;52.388;9.986;2023-03-12T15:13:13;3.20;99.90
77582;DHT22;66726;52.388;9.986;2023-03-12T15:15:47;3.20;99.90
77582;DHT22;66726;52.388;9.986;2023-03-12T15:18:24;3.20;99.90
77582;DHT22;66726;52.388;9.986;2023-03-12T15:20:59;3.20;99.90
77582;DHT22;66726;52.388;9.986;2023-03-12T15:23:35;3.30;99.90
77582;DHT22;66726;52.388;9.986;2023-03-12T15:26:11;3.30;99.90
77582;DHT22;66726;52.388;9.986;2023-03-12T15:28:56;3.30;99.90
77582;DHT22;66726;52.388;9.986;2023-03-12T15:31:40;3.40;99.90
77582;DHT22;66726;52.388;9.986;2023-03-12T15:34:14;3.40;99.90
77582;DHT22;66726;52.388;9.986;2023-03-12T15:37:02;3.40;99.90
77582;DHT22;66726;52.388;9.986;2023-03-12T15:39:49;3.40;99.90
77582;DHT22;66726;52.388;9.986;2023-03-12T15:42:24;3.40;99.90
77582;DHT22;66726;52.388;9.986;2023-03-12T15:44:59;3.50;99.90
77582;DHT22;66726;52.388;9.986;2023-03-12T15:47:40;3.40;99.90
77582;DHT22;66726;52.388;9.986;2023-03-12T15:50:20;3.50;99.90
77582;DHT22;66726;52.388;9.986;2023-03-12T15:53:03;3.50;99.90
77582;DHT22;66726;52.388;9.986;2023-03-12T15:55:38;3.50;99.90
77582;DHT22;66726;52.388;9.986;2023-03-12T15:58:23;3.60;99.90
77582;DHT22;66726;52.388;9.986;2023-03-12T16:01:05;3.60;99.90
77582;DHT22;66726;52.388;9.986;2023-03-12T16:03:40;3.60;99.90
77582;DHT22;66726;52.388;9.986;2023-03-12T16:06:15;3.70;99.90
77582;DHT22;66726;52.388;9.986;2023-03-12T16:08:54;3.70;99.90
77582;DHT22;66726;52.388;9.986;2023-03-12T16:11:30;3.70;99.90
77582;DHT22;66726;52.388;9.986;2023-03-12T16:14:09;3.70;99.90
77582;DHT22;66726;52.388;9.986;2023-03-12T16:16:46;3.80;99.90
77582;DHT22;66726;52.388;9.986;2023-03-12T16:19:20;3.80;99.90
77582;DHT22;66726;52.388;9.986;2023-03-12T16:21:53;3.80;99.90
77582;DHT22;66726;52.388;9.986;2023-03-12T16:24:26;3.80;99.90
77582;DHT22;66726;52.388;9.986;2023-03-12T16:26:58;3.80;99.90
77582;DHT22;66726;52.388;9.986;2023-03-12T16:29:34;3.90;99.90
77582;DHT22;66726;52.388;9.986;2023-03-12T16:32:12;4.10;99.90
77582;DHT22;66726;52.388;9.986;2023-03-12T16:34:46;4.00;99.90
77582;DHT22;66726;52.388;9.986;2023-03-12T16:37:17;4.00;99.90
77582;DHT22;66726;52.388;9.986;2023-03-12T16:39:50;4.10;99.90
77582;DHT22;66726;52.388;9.986;2023-03-12T16:42:23;4.10;99.90
77582;DHT22;66726;52.388;9.986;2023-03-12T16:44:55;4.10;99.90
77582;DHT22;66726;52.388;9.986;2023-03-12T16:47:26;4.20;99.90
77582;DHT22;66726;52.388;9.986;2023-03-12T16:49:58;4.10;99.90
77582;DHT22;66726;52.388;9.986;2023-03-12T16:52:30;4.10;99.90
77582;DHT22;66726;52.388;9.986;2023-03-12T16:55:06;4.10;99.90
77582;DHT22;66726;52.388;9.986;2023-03-12T16:57:41;4.10;99.90